Time;durP1;ratioP1;P1;durP2;ratioP2;P2;SDS_P1;SDS_P2;PMS_P1;PMS_P2;Temp;Humidity;BMP_temperature;BMP_pressure;BME280_temperature;BME280_humidity;BME280_pressure;Samples;Min_cycle;Max_cycle;Signal;HPM_P1;HPM_P2
2023/05/04 00:02:18;;;;;;;5.27;2.80;;;;;;;10.55;100.00;99687.22;4990354;28;20206;-77
2023/05/04 00:04:47;;;;;;;4.00;2.80;;;;;;;10.40;100.00;99677.47;4991129;28;20222;-77
2023/05/04 00:07:15;;;;;;;4.67;2.53;;;;;;;10.50;100.00;99692.75;4981747;28;20290;-77
2023/05/04 00:09:44;;;;;;;4.30;2.63;;;;;;;10.40;100.00;99683.59;4982269;28;20203;-78
2023/05/04 00:12:14;;;;;;;6.97;2.70;;;;;;;10.35;100.00;99690.09;4990512;28;20199;-77
2023/05/04 00:14:43;;;;;;;5.20;2.80;;;;;;;10.34;100.00;99688.41;4988799;28;20245;-77
2023/05/04 00:17:11;;;;;;;5.47;2.87;;;;;;;10.30;100.00;99680.59;4987090;28;20266;-77
2023/05/04 00:19:41;;;;;;;5.90;3.03;;;;;;;10.31;100.00;99692.91;4986976;28;20203;-77
2023/05/04 00:22:09;;;;;;;4.87;2.77;;;;;;;10.18;100.00;99683.03;4990567;28;20362;-77
2023/05/04 00:24:38;;;;;;;4.83;2.70;;;;;;;10.08;100.00;99687.97;4988970;28;20219;-77
2023/05/04 00:27:06;;;;;;;5.27;3.03;;;;;;;10.00;100.00;99679.59;4993102;28;20206;-77
2023/05/04 00:29:38;;;;;;;6.07;2.87;;;;;;;9.92;100.00;99677.34;4983634;28;20210;-77
2023/05/04 00:32:06;;;;;;;4.00;2.70;;;;;;;9.84;100.00;99683.97;4985602;28;20265;-78
2023/05/04 00:34:34;;;;;;;5.63;3.07;;;;;;;9.93;100.00;99671.09;4987813;28;20245;-77
2023/05/04 00:37:02;;;;;;;6.90;3.40;;;;;;;9.83;100.00;99676.97;4990144;28;20245;-77
2023/05/04 00:39:33;;;;;;;3.77;2.90;;;;;;;9.78;100.00;99671.94;4985161;28;20199;-77
2023/05/04 00:42:02;;;;;;;5.30;2.93;;;;;;;9.64;100.00;99670.00;4984982;28;20282;-77
2023/05/04 00:44:30;;;;;;;6.23;3.67;;;;;;;9.46;100.00;99677.09;4987578;28;20218;-77
2023/05/04 00:47:01;;;;;;;4.87;3.40;;;;;;;9.33;100.00;99667.22;4982070;28;20207;-77
2023/05/04 00:49:29;;;;;;;4.33;3.20;;;;;;;9.28;100.00;99675.41;4985628;28;20195;-77
2023/05/04 00:51:59;;;;;;;6.97;3.50;;;;;;;9.14;100.00;99665.50;4988112;28;20194;-77
2023/05/04 00:54:28;;;;;;;8.80;3.40;;;;;;;8.97;100.00;99662.81;4985733;28;20203;-77
2023/05/04 00:56:56;;;;;;;6.47;3.30;;;;;;;8.92;100.00;99658.72;4985505;28;20303;-77
2023/05/04 00:59:25;;;;;;;7.43;2.97;;;;;;;8.87;100.00;99656.28;4990186;28;20223;-77
2023/05/04 01:01:53;;;;;;;5.17;3.00;;;;;;;9.00;100.00;99656.56;4988335;28;20226;-77
2023/05/04 01:04:23;;;;;;;5.77;3.13;;;;;;;8.87;100.00;99658.94;4992915;28;20219;-77
2023/05/04 01:06:58;;;;;;;5.03;3.07;;;;;;;8.74;100.00;99660.47;4992921;28;20199;-77
2023/05/04 01:09:36;;;;;;;6.63;3.40;;;;;;;8.72;100.00;99647.34;4987718;28;20202;-77
2023/05/04 01:12:06;;;;;;;4.90;3.47;;;;;;;8.65;100.00;99653.84;4982181;28;20202;-77
2023/05/04 01:14:36;;;;;;;7.20;3.43;;;;;;;8.70;100.00;99654.50;4985882;28;20203;-77
2023/05/04 01:17:07;;;;;;;4.40;3.37;;;;;;;8.71;100.00;99650.06;4993978;28;20191;-78
2023/05/04 01:19:37;;;;;;;3.40;3.10;;;;;;;8.64;100.00;99653.91;4992194;28;20234;-77
2023/05/04 01:22:07;;;;;;;5.70;3.27;;;;;;;8.69;100.00;99657.22;4993567;28;20195;-77
2023/05/04 01:24:36;;;;;;;4.90;3.47;;;;;;;8.53;100.00;99654.44;4987947;28;20375;-78
2023/05/04 01:27:09;;;;;;;4.93;3.30;;;;;;;8.47;100.00;99646.78;4988332;28;20277;-77
2023/05/04 01:29:45;;;;;;;5.90;3.40;;;;;;;8.46;100.00;99653.00;4988412;28;20250;-78
2023/05/04 01:32:15;;;;;;;3.97;3.17;;;;;;;8.55;100.00;99652.56;4994864;28;20203;-78
2023/05/04 01:34:43;;;;;;;4.90;3.43;;;;;;;8.50;100.00;99649.31;4990521;28;20199;-77
2023/05/04 01:37:13;;;;;;;6.50;3.60;;;;;;;8.45;100.00;99652.16;4991566;28;20188;-77
2023/05/04 01:39:42;;;;;;;7.00;3.57;;;;;;;8.45;100.00;99649.50;4991860;28;20254;-77
2023/05/04 01:42:11;;;;;;;4.83;3.33;;;;;;;8.54;100.00;99659.63;4992485;28;20234;-77
2023/05/04 01:44:39;;;;;;;6.73;3.53;;;;;;;8.44;100.00;99658.38;4990656;28;20223;-77
2023/05/04 01:47:07;;;;;;;6.70;3.80;;;;;;;8.42;100.00;99662.00;4989599;28;20246;-77
2023/05/04 01:49:36;;;;;;;5.77;3.40;;;;;;;8.34;100.00;99664.97;4986092;28;20580;-77
2023/05/04 01:52:04;;;;;;;5.13;3.40;;;;;;;8.32;100.00;99665.03;4985776;28;20202;-77
2023/05/04 01:54:34;;;;;;;5.33;3.30;;;;;;;8.28;100.00;99663.47;4987983;28;20295;-77
2023/05/04 01:57:04;;;;;;;6.27;3.70;;;;;;;8.35;100.00;99661.44;4989943;28;20199;-77
2023/05/04 01:59:33;;;;;;;5.33;3.93;;;;;;;8.26;100.00;99662.69;4989437;28;20230;-77
2023/05/04 02:02:02;;;;;;;4.97;3.33;;;;;;;8.38;100.00;99660.44;4989228;28;20265;-77
2023/05/04 02:04:31;;;;;;;7.57;4.13;;;;;;;8.44;100.00;99654.88;4991825;28;20254;-77
2023/05/04 02:06:59;;;;;;;7.00;3.80;;;;;;;8.41;100.00;99653.25;4991266;28;20207;-77
2023/05/04 02:09:28;;;;;;;5.70;3.70;;;;;;;8.45;100.00;99653.94;4988559;28;20202;-77
2023/05/04 02:11:58;;;;;;;7.47;4.07;;;;;;;8.45;100.00;99652.16;4992377;28;20195;-77
2023/05/04 02:14:26;;;;;;;6.50;3.80;;;;;;;8.42;100.00;99649.66;4990335;28;20223;-77
2023/05/04 02:16:54;;;;;;;5.80;3.90;;;;;;;8.33;100.00;99650.91;4991423;28;20202;-77
2023/05/04 02:19:23;;;;;;;9.50;4.33;;;;;;;8.40;100.00;99654.16;4992270;28;20266;-77
2023/05/04 02:21:52;;;;;;;8.17;4.10;;;;;;;8.09;100.00;99654.69;4993299;28;20199;-77
2023/05/04 02:24:20;;;;;;;6.10;3.93;;;;;;;8.15;100.00;99646.50;4993594;28;20202;-78
2023/05/04 02:26:49;;;;;;;5.83;4.07;;;;;;;8.18;100.00;99646.34;4989694;28;20254;-77
2023/05/04 02:29:19;;;;;;;5.77;4.10;;;;;;;8.17;100.00;99651.69;4995233;28;20574;-76
2023/05/04 02:31:47;;;;;;;8.73;3.97;;;;;;;8.09;100.00;99654.69;4986814;28;20195;-77
2023/05/04 02:34:16;;;;;;;6.67;3.87;;;;;;;8.16;100.00;99656.13;4995168;28;20253;-77
2023/05/04 02:36:44;;;;;;;11.47;4.00;;;;;;;8.03;100.00;99650.56;4992979;28;20249;-77
2023/05/04 02:39:12;;;;;;;7.30;3.70;;;;;;;7.98;100.00;99656.97;4988468;28;20207;-77
2023/05/04 02:41:41;;;;;;;5.70;4.20;;;;;;;8.00;100.00;99649.81;4988700;28;20202;-77
2023/05/04 02:44:09;;;;;;;5.80;4.20;;;;;;;7.99;100.00;99656.88;4988003;28;20251;-77
2023/05/04 02:46:39;;;;;;;6.73;4.23;;;;;;;7.87;100.00;99653.94;4994699;28;20225;-77
2023/05/04 02:49:07;;;;;;;7.33;4.27;;;;;;;7.89;100.00;99644.19;4991776;28;20250;-77
2023/05/04 02:51:35;;;;;;;6.80;4.23;;;;;;;8.08;100.00;99647.69;4986911;28;20760;-77
2023/05/04 02:54:03;;;;;;;4.33;3.93;;;;;;;7.97;100.00;99656.09;4990783;28;20642;-77
2023/05/04 02:56:32;;;;;;;6.90;4.00;;;;;;;7.94;100.00;99650.13;4989229;28;20226;-77
2023/05/04 02:59:00;;;;;;;10.43;4.47;;;;;;;7.99;100.00;99648.13;4989711;28;20676;-77
2023/05/04 03:01:28;;;;;;;6.13;4.30;;;;;;;7.92;100.00;99647.56;4940625;28;20197;-77
2023/05/04 03:04:02;;;;;;;4.73;3.90;;;;;;;8.00;100.00;99640.13;4992168;28;20195;-77
2023/05/04 03:06:30;;;;;;;7.60;4.27;;;;;;;8.15;100.00;99638.59;4989514;28;20285;-77
2023/05/04 03:08:59;;;;;;;6.73;3.90;;;;;;;7.97;100.00;99642.91;4981280;28;20257;-77
2023/05/04 03:11:28;;;;;;;6.57;3.70;;;;;;;7.90;100.00;99643.25;4990044;28;20214;-77
2023/05/04 03:13:56;;;;;;;7.63;4.20;;;;;;;7.87;100.00;99646.03;4989628;28;20534;-76
2023/05/04 03:16:24;;;;;;;7.33;4.00;;;;;;;7.89;100.00;99637.13;4987864;28;20199;-77
2023/05/04 03:18:53;;;;;;;8.07;4.40;;;;;;;7.85;100.00;99635.56;4994245;28;20199;-77
2023/05/04 03:21:40;;;;;;;5.97;4.13;;;;;;;7.82;100.00;99630.44;4994034;28;20317;-77
2023/05/04 03:24:10;;;;;;;6.73;4.30;;;;;;;7.71;100.00;99635.31;4992888;28;20200;-77
2023/05/04 03:26:38;;;;;;;5.93;4.30;;;;;;;7.78;100.00;99630.63;4990534;28;20226;-77
2023/05/04 03:29:06;;;;;;;6.50;4.37;;;;;;;7.74;100.00;99640.47;4994149;28;20203;-77
2023/05/04 03:31:35;;;;;;;5.53;4.40;;;;;;;7.75;100.00;99629.84;4991306;28;20249;-77
2023/05/04 03:34:03;;;;;;;6.13;4.40;;;;;;;7.83;100.00;99636.56;4989345;28;20293;-77
2023/05/04 03:36:31;;;;;;;5.40;3.93;;;;;;;7.76;100.00;99630.72;4985529;28;20195;-77
2023/05/04 03:39:01;;;;;;;7.30;4.33;;;;;;;7.77;100.00;99635.06;4988412;28;20725;-77
2023/05/04 03:41:29;;;;;;;6.67;4.33;;;;;;;7.79;100.00;99629.69;4989810;28;20199;-77
2023/05/04 03:43:58;;;;;;;6.70;3.97;;;;;;;7.59;100.00;99642.00;4992573;28;20207;-77
2023/05/04 03:46:28;;;;;;;6.00;4.43;;;;;;;7.65;100.00;99627.69;4993387;28;20237;-77
2023/05/04 03:48:57;;;;;;;7.47;4.47;;;;;;;7.47;100.00;99635.47;4986578;28;20195;-77
2023/05/04 03:51:26;;;;;;;5.30;4.13;;;;;;;7.59;100.00;99631.44;4933540;29;20205;-77
2023/05/04 03:53:56;;;;;;;6.10;4.20;;;;;;;7.57;100.00;99628.03;4928559;29;20201;-77
2023/05/04 03:56:26;;;;;;;5.73;4.10;;;;;;;7.61;100.00;99628.75;4919006;29;20209;-77
2023/05/04 03:58:54;;;;;;;8.57;4.37;;;;;;;7.55;100.00;99626.41;4929559;29;20258;-77
2023/05/04 04:01:23;;;;;;;6.53;4.70;;;;;;;7.55;100.00;99623.75;4909909;29;20269;-77
2023/05/04 04:03:51;;;;;;;7.30;4.90;;;;;;;7.71;100.00;99616.84;4877294;29;20260;-77
2023/05/04 04:06:20;;;;;;;7.33;4.57;;;;;;;7.66;100.00;99618.88;4874359;29;20254;-77
2023/05/04 04:08:48;;;;;;;7.03;4.57;;;;;;;7.53;100.00;99630.84;4820857;29;20201;-77
2023/05/04 04:11:16;;;;;;;7.33;4.43;;;;;;;7.79;100.00;99621.78;4814925;29;20350;-77
2023/05/04 04:13:46;;;;;;;8.07;4.33;;;;;;;7.61;100.00;99623.47;4814802;29;20245;-77
2023/05/04 04:16:15;;;;;;;8.00;4.30;;;;;;;7.60;100.00;99617.34;4846565;29;20199;-77
2023/05/04 04:18:43;;;;;;;9.53;4.83;;;;;;;7.55;100.00;99624.63;4872840;29;20247;-77
2023/05/04 04:21:12;;;;;;;6.17;4.73;;;;;;;7.55;100.00;99624.63;4876039;29;20202;-77
2023/05/04 04:23:40;;;;;;;9.17;4.57;;;;;;;7.60;100.00;99619.13;4908256;29;20222;-77
2023/05/04 04:26:09;;;;;;;7.57;4.87;;;;;;;7.50;100.00;99631.00;4911993;29;20221;-77
2023/05/04 04:28:37;;;;;;;6.73;4.60;;;;;;;7.55;100.00;99634.31;4906977;29;20246;-77
2023/05/04 04:31:08;;;;;;;6.60;4.50;;;;;;;7.59;100.00;99625.31;4907687;29;20250;-77
2023/05/04 04:33:36;;;;;;;6.47;4.53;;;;;;;7.60;100.00;99622.63;4906693;29;20206;-77
2023/05/04 04:36:05;;;;;;;6.23;4.70;;;;;;;7.78;100.00;99618.31;4908185;29;20206;-77
2023/05/04 04:38:38;;;;;;;10.50;4.70;;;;;;;7.81;100.00;99619.94;4902211;29;20209;-76
2023/05/04 04:41:06;;;;;;;5.87;4.33;;;;;;;7.84;100.00;99615.41;4965592;28;20206;-77
2023/05/04 04:43:35;;;;;;;6.83;4.47;;;;;;;7.91;100.00;99618.59;4969708;28;20663;-76
2023/05/04 04:46:07;;;;;;;7.27;4.57;;;;;;;8.10;100.00;99610.69;4965834;28;20224;-76
2023/05/04 04:48:36;;;;;;;7.20;5.20;;;;;;;8.18;100.00;99617.31;4971486;28;20211;-76
2023/05/04 04:51:10;;;;;;;6.03;4.70;;;;;;;8.10;100.00;99619.47;4977194;28;20729;-76
2023/05/04 04:53:38;;;;;;;6.03;4.50;;;;;;;8.21;100.00;99626.91;4973187;28;20250;-77
2023/05/04 04:56:08;;;;;;;6.70;4.67;;;;;;;8.28;100.00;99620.38;4972552;28;20211;-76
2023/05/04 04:58:36;;;;;;;7.10;5.07;;;;;;;8.11;100.00;99625.63;4972258;28;20207;-77
2023/05/04 05:01:06;;;;;;;7.13;4.70;;;;;;;8.18;100.00;99625.22;4994494;28;20223;-76
2023/05/04 05:03:37;;;;;;;7.20;4.30;;;;;;;8.23;100.00;99628.53;4991430;28;20198;-77
2023/05/04 05:06:06;;;;;;;8.63;4.97;;;;;;;8.28;100.00;99625.66;4992281;28;20682;-76
2023/05/04 05:08:34;;;;;;;8.23;4.80;;;;;;;8.17;100.00;99635.88;4992613;28;20198;-77
2023/05/04 05:11:03;;;;;;;5.90;4.33;;;;;;;8.29;100.00;99632.66;4990173;28;20250;-77
2023/05/04 05:13:32;;;;;;;11.10;5.33;;;;;;;8.39;100.00;99639.22;4987379;28;20254;-76
2023/05/04 05:16:00;;;;;;;6.10;4.40;;;;;;;8.37;100.00;99633.19;4991176;28;20210;-76
2023/05/04 05:18:29;;;;;;;8.77;5.47;;;;;;;8.48;100.00;99633.53;4989189;28;20199;-77
2023/05/04 05:20:59;;;;;;;9.10;5.47;;;;;;;8.35;100.00;99635.03;4991714;28;20226;-77
2023/05/04 05:23:27;;;;;;;8.00;5.03;;;;;;;8.57;100.00;99640.16;4988302;28;20195;-76
2023/05/04 05:25:56;;;;;;;5.83;4.90;;;;;;;8.52;100.00;99635.09;4988881;28;20203;-76
2023/05/04 05:28:24;;;;;;;8.40;5.07;;;;;;;8.63;100.00;99631.09;4991858;28;20207;-77
2023/05/04 05:30:53;;;;;;;9.00;5.00;;;;;;;8.65;100.00;99642.41;4991339;28;20721;-77
2023/05/04 05:33:22;;;;;;;7.53;5.00;;;;;;;8.69;100.00;99641.38;4993289;28;20195;-77
2023/05/04 05:35:51;;;;;;;8.90;4.70;;;;;;;8.89;100.00;99635.97;4988297;28;20191;-77
2023/05/04 05:38:21;;;;;;;6.93;4.90;;;;;;;8.86;100.00;99634.31;4992213;28;20223;-76
2023/05/04 05:40:49;;;;;;;7.13;4.80;;;;;;;9.03;100.00;99637.91;4993366;28;20799;-77
2023/05/04 05:43:18;;;;;;;7.67;5.33;;;;;;;9.13;100.00;99633.88;4987750;28;20273;-77
2023/05/04 05:45:48;;;;;;;6.73;5.47;;;;;;;9.24;100.00;99631.53;4990994;28;20194;-77
2023/05/04 05:48:16;;;;;;;10.90;5.30;;;;;;;9.38;100.00;99633.47;4991604;28;20219;-77
2023/05/04 05:50:46;;;;;;;8.17;5.20;;;;;;;9.40;100.00;99632.47;4993122;28;20206;-77
2023/05/04 05:53:14;;;;;;;10.77;5.97;;;;;;;9.46;100.00;99636.59;4987327;28;20195;-77
2023/05/04 05:55:46;;;;;;;7.17;5.10;;;;;;;9.63;100.00;99630.41;4987667;28;20245;-77
2023/05/04 05:58:15;;;;;;;8.33;4.97;;;;;;;9.56;100.00;99637.81;4990248;28;20199;-77
2023/05/04 06:00:43;;;;;;;8.80;5.47;;;;;;;9.74;100.00;99634.19;4986867;28;20235;-77
2023/05/04 06:03:12;;;;;;;7.33;6.07;;;;;;;9.69;100.00;99630.94;4993569;28;20199;-77
2023/05/04 06:05:40;;;;;;;8.27;5.23;;;;;;;9.93;100.00;99628.75;4991330;28;20263;-77
2023/05/04 06:08:08;;;;;;;10.80;5.57;;;;;;;10.14;100.00;99623.28;4993907;28;20214;-77
2023/05/04 06:10:38;;;;;;;8.13;5.63;;;;;;;9.99;100.00;99624.94;4988557;28;20250;-77
2023/05/04 06:13:08;;;;;;;7.50;5.77;;;;;;;10.10;100.00;99624.38;4988977;28;20198;-76
2023/05/04 06:15:36;;;;;;;9.37;5.33;;;;;;;10.25;100.00;99626.22;4992657;28;20201;-77
2023/05/04 06:18:05;;;;;;;7.80;6.00;;;;;;;10.18;100.00;99636.25;4991096;28;20195;-77
2023/05/04 06:20:33;;;;;;;10.43;5.67;;;;;;;10.39;100.00;99633.38;4989008;28;20199;-77
2023/05/04 06:23:01;;;;;;;11.70;5.77;;;;;;;10.39;100.00;99636.88;4993892;28;20480;-77
2023/05/04 06:25:30;;;;;;;6.83;5.27;;;;;;;10.30;100.00;99632.09;4990947;28;20211;-77
2023/05/04 06:27:58;;;;;;;8.43;5.30;;;;;;;10.50;100.00;99631.84;4995076;28;20215;-77
2023/05/04 06:30:29;;;;;;;7.10;4.77;;;;;;;10.59;100.00;99628.66;4987371;28;20203;-77
2023/05/04 06:32:57;;;;;;;8.80;5.33;;;;;;;10.78;100.00;99631.13;4993046;28;20245;-77
2023/05/04 06:35:26;;;;;;;8.73;5.33;;;;;;;10.84;100.00;99630.78;4995140;28;20202;-77
2023/05/04 06:37:54;;;;;;;11.50;5.33;;;;;;;10.95;100.00;99635.47;4990675;28;20254;-77
2023/05/04 06:40:22;;;;;;;7.17;5.70;;;;;;;10.75;100.00;99639.25;4992297;28;20203;-77
2023/05/04 06:42:51;;;;;;;6.63;5.40;;;;;;;11.06;100.00;99635.69;4988672;28;20207;-77
2023/05/04 06:45:19;;;;;;;11.40;5.70;;;;;;;10.97;100.00;99630.06;4994647;28;20201;-77
2023/05/04 06:47:49;;;;;;;8.73;5.43;;;;;;;11.06;100.00;99630.38;4991250;28;20222;-77
2023/05/04 06:50:17;;;;;;;8.90;5.47;;;;;;;11.01;100.00;99628.97;4991914;28;20210;-77
2023/05/04 06:52:46;;;;;;;10.53;5.93;;;;;;;11.22;100.00;99625.06;4990603;28;20195;-77
2023/05/04 06:55:14;;;;;;;8.43;5.33;;;;;;;11.36;100.00;99632.19;4990461;28;20199;-77
2023/05/04 06:57:43;;;;;;;9.33;5.37;;;;;;;11.66;100.00;99630.31;4988423;28;20281;-77
2023/05/04 07:00:14;;;;;;;7.43;5.70;;;;;;;11.55;100.00;99629.28;4991503;28;20223;-77
2023/05/04 07:02:42;;;;;;;8.50;5.50;;;;;;;11.44;100.00;99621.97;4932925;29;20205;-77
2023/05/04 07:05:13;;;;;;;7.90;5.40;;;;;;;11.79;100.00;99622.50;4932034;29;20208;-77
2023/05/04 07:07:42;;;;;;;8.00;5.50;;;;;;;11.69;100.00;99622.19;4928410;29;20217;-77
2023/05/04 07:10:11;;;;;;;8.73;5.07;;;;;;;11.72;100.00;99622.00;4931886;29;20208;-77
2023/05/04 07:12:40;;;;;;;8.23;5.50;;;;;;;11.97;100.00;99625.84;4929557;29;20197;-77
2023/05/04 07:15:10;;;;;;;8.30;5.47;;;;;;;12.28;100.00;99619.44;4928139;29;20280;-77
2023/05/04 07:17:39;;;;;;;7.67;5.37;;;;;;;12.39;100.00;99613.44;4930325;29;20284;-77
2023/05/04 07:20:08;;;;;;;6.90;5.07;;;;;;;12.36;100.00;99619.81;4885031;29;20272;-78
2023/05/04 07:22:38;;;;;;;7.93;5.27;;;;;;;12.68;100.00;99623.03;4853534;29;20203;-77
2023/05/04 07:25:08;;;;;;;8.63;5.53;;;;;;;12.86;100.00;99616.53;4853914;29;20200;-77
2023/05/04 07:27:36;;;;;;;7.47;5.43;;;;;;;12.89;100.00;99613.66;4856593;29;20226;-77
2023/05/04 07:30:07;;;;;;;10.60;5.33;;;;;;;13.27;100.00;99606.75;4858822;29;20290;-77
2023/05/04 07:32:35;;;;;;;9.57;5.60;;;;;;;13.42;100.00;99609.25;4859064;29;20242;-77
2023/05/04 07:35:04;;;;;;;6.97;4.80;;;;;;;13.38;100.00;99605.06;4857939;29;20203;-78
2023/05/04 07:37:32;;;;;;;7.40;5.07;;;;;;;13.33;100.00;99601.88;4883823;29;20198;-77
2023/05/04 07:40:04;;;;;;;5.83;4.50;;;;;;;13.74;100.00;99599.00;4914316;29;20201;-77
2023/05/04 07:42:34;;;;;;;9.00;4.80;;;;;;;13.70;100.00;99605.53;4928522;29;20193;-77
2023/05/04 07:45:02;;;;;;;9.80;4.53;;;;;;;13.52;100.00;99596.16;4933980;29;20715;-78
2023/05/04 07:47:32;;;;;;;6.93;4.53;;;;;;;13.66;100.00;99598.69;4933671;29;20304;-77
2023/05/04 07:50:00;;;;;;;8.63;4.67;;;;;;;13.84;100.00;99593.03;4931422;29;20205;-78
2023/05/04 07:52:29;;;;;;;8.27;5.07;;;;;;;14.22;100.00;99583.16;4930031;29;20265;-78
2023/05/04 07:54:57;;;;;;;5.80;4.37;;;;;;;14.29;100.00;99584.44;4939441;28;20206;-77
2023/05/04 07:57:27;;;;;;;9.07;4.47;;;;;;;14.53;100.00;99581.81;4986303;28;20257;-77
2023/05/04 07:59:55;;;;;;;6.70;4.53;;;;;;;14.62;100.00;99579.44;4959443;28;20227;-77
2023/05/04 08:02:23;;;;;;;8.53;4.53;;;;;;;14.83;99.91;99576.03;4990812;28;20203;-78
2023/05/04 08:04:52;;;;;;;9.03;4.60;;;;;;;14.98;99.14;99576.69;4991446;28;20203;-77
2023/05/04 08:07:21;;;;;;;6.83;4.67;;;;;;;15.01;97.01;99584.47;4989030;28;20573;-78
2023/05/04 08:09:51;;;;;;;7.63;4.47;;;;;;;15.21;96.94;99582.09;4985744;28;20285;-77
2023/05/04 08:12:19;;;;;;;6.13;5.03;;;;;;;15.34;95.75;99575.69;4989849;28;20195;-77
2023/05/04 08:14:49;;;;;;;6.90;4.70;;;;;;;15.50;95.09;99575.38;4985180;28;20202;-78
2023/05/04 08:17:17;;;;;;;7.90;4.47;;;;;;;15.63;94.21;99569.94;4988053;28;20195;-78
2023/05/04 08:19:45;;;;;;;7.70;5.03;;;;;;;15.48;92.68;99568.44;4990233;28;20762;-77
2023/05/04 08:22:14;;;;;;;6.50;4.50;;;;;;;15.41;94.26;99557.38;4984641;28;20203;-78
2023/05/04 08:24:43;;;;;;;7.10;4.30;;;;;;;15.72;90.90;99567.41;4985474;28;20207;-78
2023/05/04 08:27:12;;;;;;;7.90;4.73;;;;;;;15.72;90.96;99566.56;4986960;28;20245;-77
2023/05/04 08:29:41;;;;;;;6.83;4.43;;;;;;;15.80;90.34;99555.28;4993310;28;20269;-77
2023/05/04 08:32:10;;;;;;;8.50;5.20;;;;;;;15.63;91.00;99560.13;4993429;28;20199;-77
2023/05/04 08:34:39;;;;;;;7.53;4.70;;;;;;;15.77;90.98;99561.72;4989282;28;20202;-77
2023/05/04 08:37:07;;;;;;;6.90;5.07;;;;;;;16.16;88.65;99555.00;4991668;28;20198;-78
2023/05/04 08:39:38;;;;;;;9.00;5.17;;;;;;;16.29;85.72;99563.72;4989031;28;20638;-77
2023/05/04 08:42:09;;;;;;;9.83;7.77;;;;;;;16.19;85.35;99556.56;4990030;28;20199;-77
2023/05/04 08:44:37;;;;;;;8.73;5.67;;;;;;;16.06;87.96;99553.19;4985269;28;20198;-78
2023/05/04 08:47:06;;;;;;;5.80;4.80;;;;;;;16.38;88.62;99550.59;4928506;29;20201;-78
2023/05/04 08:49:35;;;;;;;6.27;4.30;;;;;;;16.36;88.03;99542.69;4928203;29;20228;-77
2023/05/04 08:52:08;;;;;;;6.70;4.30;;;;;;;16.57;85.33;99551.63;4926593;29;20335;-78
2023/05/04 08:54:41;;;;;;;6.50;4.23;;;;;;;16.89;84.17;99542.78;4924629;29;20204;-78
2023/05/04 08:57:10;;;;;;;6.23;4.37;;;;;;;16.58;86.91;99536.41;4928628;29;20205;-77
2023/05/04 08:59:41;;;;;;;6.33;4.20;;;;;;;16.77;84.38;99531.28;4930509;29;20300;-78
2023/05/04 09:02:11;;;;;;;5.50;4.37;;;;;;;16.59;83.10;99540.78;4926160;29;20201;-78
2023/05/04 09:04:42;;;;;;;7.50;4.57;;;;;;;16.66;86.18;99533.97;4937310;28;20206;-77
2023/05/04 09:07:10;;;;;;;9.17;4.27;;;;;;;17.19;85.90;99543.84;4987590;28;20207;-77
2023/05/04 09:09:40;;;;;;;7.47;4.43;;;;;;;17.52;81.34;99532.91;4982317;28;20277;-78
2023/05/04 09:12:08;;;;;;;6.67;4.37;;;;;;;17.72;80.64;99533.88;4992687;28;20195;-78
2023/05/04 09:14:37;;;;;;;5.53;4.23;;;;;;;17.71;77.92;99529.50;4952840;28;20199;-78
2023/05/04 09:17:13;;;;;;;6.80;4.30;;;;;;;17.99;77.45;99528.78;4987340;28;20203;-78
2023/05/04 09:19:44;;;;;;;9.27;4.90;;;;;;;17.92;75.52;99522.25;4989851;28;20199;-77
2023/05/04 09:22:16;;;;;;;5.97;4.80;;;;;;;18.17;70.41;99522.75;4989035;28;20191;-77
2023/05/04 09:24:45;;;;;;;5.47;4.70;;;;;;;18.58;69.54;99517.16;4985246;28;20207;-77
2023/05/04 09:27:15;;;;;;;7.40;4.70;;;;;;;18.94;68.88;99522.00;4984574;28;20274;-77
2023/05/04 09:29:43;;;;;;;7.90;5.23;;;;;;;18.87;64.89;99514.50;4989622;28;20269;-77
2023/05/04 09:32:13;;;;;;;5.67;5.07;;;;;;;18.52;62.10;99517.72;4984397;28;20225;-77
2023/05/04 09:34:52;;;;;;;8.50;4.83;;;;;;;18.44;62.72;99517.59;4988606;28;20219;-78
2023/05/04 09:37:21;;;;;;;10.63;4.70;;;;;;;18.54;59.99;99513.09;4989500;28;20434;-78
2023/05/04 09:39:54;;;;;;;5.90;3.93;;;;;;;18.68;60.32;99508.31;4989768;28;20195;-78
2023/05/04 09:42:23;;;;;;;7.70;4.40;;;;;;;19.07;62.29;99501.06;4992218;28;20191;-78
2023/05/04 09:44:59;;;;;;;9.67;4.60;;;;;;;19.11;58.60;99503.34;4991856;28;20309;-78
2023/05/04 09:47:35;;;;;;;4.63;3.80;;;;;;;19.35;57.45;99502.84;4988469;28;20207;-78
2023/05/04 09:50:14;;;;;;;7.73;4.40;;;;;;;19.32;57.80;99505.00;4994837;28;20222;-77
2023/05/04 09:52:46;;;;;;;6.13;4.40;;;;;;;19.60;57.63;99506.78;4989669;28;20210;-77
2023/05/04 09:55:16;;;;;;;6.27;4.40;;;;;;;19.22;58.07;99499.66;4951511;29;20203;-78
2023/05/04 09:57:45;;;;;;;5.83;4.00;;;;;;;19.33;56.89;99495.94;4950503;29;20196;-78
2023/05/04 10:00:16;;;;;;;7.50;4.57;;;;;;;19.61;54.68;99488.81;4954695;29;20248;-78
2023/05/04 10:02:45;;;;;;;5.20;3.97;;;;;;;19.68;55.56;99490.72;4945491;29;20208;-78
2023/05/04 10:05:20;;;;;;;5.40;3.90;;;;;;;19.43;52.77;99496.75;4855219;29;20276;-78
2023/05/04 10:07:50;;;;;;;6.57;4.00;;;;;;;19.65;52.10;99487.50;4859406;29;20732;-77
2023/05/04 10:10:18;;;;;;;4.27;3.73;;;;;;;20.01;53.89;99480.41;4854456;29;20226;-78
2023/05/04 10:12:47;;;;;;;5.47;4.10;;;;;;;20.16;52.39;99480.72;4862167;29;20205;-77
2023/05/04 10:15:17;;;;;;;6.60;4.37;;;;;;;20.36;52.00;99476.91;4893528;29;20281;-77
2023/05/04 10:18:00;;;;;;;11.17;4.27;;;;;;;20.51;52.45;99477.25;4891163;29;20199;-78
2023/05/04 10:21:01;;;;;;;6.03;4.67;;;;;;;20.32;53.78;99478.22;4837207;29;20201;-78
2023/05/04 10:23:51;;;;;;;5.83;5.13;;;;;;;20.36;56.79;99470.66;4875548;29;20263;-78
2023/05/04 10:26:41;;;;;;;7.87;4.67;;;;;;;20.53;53.28;99465.31;4906794;29;20209;-77
2023/05/04 10:29:21;;;;;;;4.63;4.20;;;;;;;20.89;52.11;99459.06;4913901;29;20320;-77
2023/05/04 10:31:51;;;;;;;5.50;4.40;;;;;;;21.00;51.27;99459.66;4909900;29;20227;-78
2023/05/04 10:34:26;;;;;;;5.00;4.50;;;;;;;20.84;51.25;99460.41;4913804;29;20198;-78
2023/05/04 10:36:55;;;;;;;6.25;3.97;;;;;;;21.60;49.67;99454.31;4855168;29;20203;-78
2023/05/04 10:39:27;;;;;;;7.85;3.97;;;;;;;21.63;48.58;99459.41;4895875;29;20273;-78
2023/05/04 10:42:01;;;;;;;6.30;4.07;;;;;;;21.70;49.00;99448.81;4912721;29;20692;-78
2023/05/04 10:44:32;;;;;;;8.95;4.15;;;;;;;21.99;49.46;99440.31;4907702;29;20209;-78
2023/05/04 10:47:04;;;;;;;5.78;4.38;;;;;;;21.83;48.79;99446.50;4910590;29;20197;-78
2023/05/04 10:49:34;;;;;;;7.60;4.55;;;;;;;21.05;49.58;99453.81;4905392;29;20233;-78
2023/05/04 10:52:11;;;;;;;4.88;4.03;;;;;;;21.37;51.09;99437.88;4915307;29;20687;-78
2023/05/04 10:54:45;;;;;;;5.65;4.05;;;;;;;21.74;49.81;99436.69;4940490;28;20298;-78
2023/05/04 10:57:16;;;;;;;6.43;4.07;;;;;;;21.73;50.05;99437.72;4992109;28;20191;-78
2023/05/04 10:59:55;;;;;;;5.47;4.30;;;;;;;21.74;47.27;99434.00;4985308;28;20226;-78
2023/05/04 11:02:24;;;;;;;6.55;3.97;;;;;;;21.81;47.87;99428.78;4992120;28;20191;-78
2023/05/04 11:05:02;;;;;;;5.22;4.05;;;;;;;22.38;47.54;99412.75;4994591;28;20191;-78
2023/05/04 11:07:36;;;;;;;5.38;4.05;;;;;;;22.53;46.33;99417.31;4992122;28;20205;-79
2023/05/04 11:10:09;;;;;;;7.10;4.13;;;;;;;22.09;45.81;99408.66;4983026;28;20238;-78
2023/05/04 11:12:38;;;;;;;5.78;4.15;;;;;;;22.60;47.64;99400.47;4988981;28;20207;-78
2023/05/04 11:15:08;;;;;;;6.07;4.07;;;;;;;22.48;48.17;99392.66;4984549;28;20203;-78
2023/05/04 11:17:46;;;;;;;4.82;4.18;;;;;;;22.56;44.61;99387.28;4985486;28;20195;-78
2023/05/04 11:20:21;;;;;;;4.78;3.80;;;;;;;22.67;43.84;99374.44;4988953;28;20202;-78
2023/05/04 11:22:50;;;;;;;5.72;3.75;;;;;;;22.67;44.15;99369.03;4985910;28;20190;-78
2023/05/04 11:25:29;;;;;;;5.95;3.67;;;;;;;22.99;44.56;99366.34;4986758;28;20398;-78
2023/05/04 11:27:59;;;;;;;6.47;3.60;;;;;;;23.19;43.38;99364.09;4985002;28;20198;-78
2023/05/04 11:30:32;;;;;;;5.10;3.63;;;;;;;23.01;44.18;99360.75;4986875;28;20219;-78
2023/05/04 11:33:10;;;;;;;5.30;4.10;;;;;;;22.85;43.49;99361.63;4989397;28;20191;-79
2023/05/04 11:35:39;;;;;;;4.68;3.78;;;;;;;23.01;44.30;99358.06;4990341;28;20270;-78
2023/05/04 11:38:08;;;;;;;8.20;3.80;;;;;;;22.82;44.20;99360.09;4983540;28;20191;-78
2023/05/04 11:40:40;;;;;;;5.80;3.90;;;;;;;22.80;44.19;99347.78;4988369;28;20238;-79
2023/05/04 11:43:11;;;;;;;4.95;3.28;;;;;;;22.56;43.72;99344.06;4986399;28;20203;-78
2023/05/04 11:45:41;;;;;;;5.28;3.80;;;;;;;22.92;43.46;99345.56;4985972;28;20654;-77